Grand Marais, Minnesota
Current Conditions -  °F | °C
As of 4:01 AM on Saturday 22 Nov 2014 (Local Time) from KCKC Reporting Station
Scattered Clouds Scattered Clouds  
Wind Chill: 11°   Ceiling: Unl
Heat Index: 19°   Visibility: 4mi
Dew Point: 16°   Wind: 6mph
Humidity: 86%   Direction: 210°SSW
Pressure: 29.6"   Gusts: NA
Location:  47.75°N, 90.33°W
Report Text: KCKC 221001Z AUTO 21005KT 4SM SCT095 M07/M09 A2960 RMK AO2
Loading
Personal Weather Stations






























Interactive Weather Map New forecast layout! Learn more

10-Day Weather Forecast

Advertisements
Track Severe Weather on mobile